createdAt,value
2023-04-03T00:01:17.327Z,3.50
2023-04-03T00:03:45.291Z,3.10
2023-04-03T00:06:13.521Z,3.03
2023-04-03T00:08:42.548Z,3.60
2023-04-03T00:11:11.120Z,3.40
2023-04-03T00:13:40.945Z,2.97
2023-04-03T00:16:11.627Z,3.40
2023-04-03T00:18:40.765Z,2.90
2023-04-03T00:21:09.906Z,2.70
2023-04-03T00:23:37.699Z,2.93
2023-04-03T00:26:05.752Z,2.80
2023-04-03T00:28:33.698Z,2.47
2023-04-03T00:31:01.652Z,2.77
2023-04-03T00:33:30.844Z,2.37
2023-04-03T00:35:58.796Z,2.23
2023-04-03T00:38:26.759Z,2.60
2023-04-03T00:40:54.560Z,2.90
2023-04-03T00:43:25.215Z,2.37
2023-04-03T00:45:53.778Z,2.50
2023-04-03T00:48:24.986Z,3.03
2023-04-03T00:50:54.703Z,2.57
2023-04-03T00:53:27.562Z,2.60
2023-04-03T00:55:57.714Z,2.80
2023-04-03T00:58:32.908Z,2.70
2023-04-03T01:01:02.642Z,2.50
2023-04-03T01:03:32.363Z,2.53
2023-04-03T01:06:01.989Z,2.67
2023-04-03T01:08:29.833Z,2.80
2023-04-03T01:10:57.728Z,2.43
2023-04-03T01:13:27.954Z,2.30
2023-04-03T01:15:56.427Z,2.50
2023-04-03T01:18:27.172Z,2.90
2023-04-03T01:21:34.387Z,2.20
2023-04-03T01:24:13.614Z,2.30
2023-04-03T01:26:41.694Z,2.30
2023-04-03T01:29:09.530Z,2.10
2023-04-03T01:31:52.262Z,2.57
2023-04-03T01:34:20.788Z,2.57
2023-04-03T01:36:48.581Z,2.20
2023-04-03T01:39:16.597Z,3.20
2023-04-03T01:41:44.681Z,2.77
2023-04-03T01:44:12.502Z,2.77
2023-04-03T01:46:40.275Z,2.70
2023-04-03T01:49:09.608Z,2.53
2023-04-03T01:51:37.468Z,2.73
2023-04-03T01:54:05.631Z,2.10
2023-04-03T01:56:33.449Z,2.40
2023-04-03T01:59:01.341Z,2.60
2023-04-03T02:01:29.164Z,2.73
2023-04-03T02:03:56.973Z,2.27
2023-04-03T02:06:26.228Z,2.90
2023-04-03T02:08:54.241Z,2.30
2023-04-03T02:11:22.203Z,2.40
2023-04-03T02:13:49.959Z,2.20
2023-04-03T02:16:17.832Z,2.70
2023-04-03T02:18:45.795Z,3.27
2023-04-03T02:21:13.616Z,2.60
2023-04-03T02:23:42.781Z,2.80
2023-04-03T02:26:13.621Z,2.87
2023-04-03T02:28:42.266Z,2.00
2023-04-03T02:31:11.982Z,2.50
2023-04-03T02:33:40.319Z,2.17
2023-04-03T02:36:09.647Z,2.20
2023-04-03T02:38:37.996Z,2.10
2023-04-03T02:41:09.182Z,1.90
2023-04-03T02:43:37.172Z,1.83
2023-04-03T02:46:05.518Z,2.33
2023-04-03T02:48:33.865Z,1.83
2023-04-03T02:51:01.972Z,2.20
2023-04-03T02:53:29.787Z,2.10
2023-04-03T02:55:59.961Z,2.13
2023-04-03T02:58:29.140Z,2.20
2023-04-03T03:00:56.889Z,1.80
2023-04-03T03:03:24.762Z,1.90
2023-04-03T03:06:02.103Z,2.07
2023-04-03T03:08:29.941Z,1.77
2023-04-03T03:10:57.743Z,1.80
2023-04-03T03:13:25.980Z,1.63
2023-04-03T03:15:55.289Z,1.73
2023-04-03T03:18:23.155Z,1.77
2023-04-03T03:20:53.287Z,1.40
2023-04-03T03:23:21.171Z,1.83
2023-04-03T03:25:48.959Z,2.03
2023-04-03T03:28:16.856Z,2.00
2023-04-03T03:30:44.636Z,1.73
2023-04-03T03:33:13.770Z,2.33
2023-04-03T03:35:42.740Z,2.07
2023-04-03T03:38:10.492Z,1.90
2023-04-03T03:40:38.227Z,1.30
2023-04-03T03:43:08.396Z,1.80
2023-04-03T03:45:36.502Z,1.97
2023-04-03T03:48:05.533Z,2.43
2023-04-03T03:50:35.065Z,1.77
2023-04-03T03:53:03.073Z,2.00
2023-04-03T03:55:30.944Z,1.80
2023-04-03T03:57:58.736Z,1.93
2023-04-03T04:00:26.581Z,2.13
2023-04-03T04:02:55.755Z,2.23
2023-04-03T04:05:25.472Z,2.20
2023-04-03T04:07:54.652Z,2.07
2023-04-03T04:10:22.684Z,2.37
2023-04-03T04:12:52.218Z,1.43
2023-04-03T04:15:20.130Z,2.13
2023-04-03T04:17:47.906Z,2.13
2023-04-03T04:20:15.994Z,2.20
2023-04-03T04:22:43.810Z,1.80
2023-04-03T04:25:12.988Z,1.90
2023-04-03T04:27:40.995Z,2.00
2023-04-03T04:30:10.070Z,1.80
2023-04-03T04:32:39.108Z,1.80
2023-04-03T04:35:07.421Z,1.80
2023-04-03T04:37:35.624Z,1.80
2023-04-03T04:40:04.047Z,2.17
2023-04-03T04:42:34.765Z,2.23
2023-04-03T04:45:02.569Z,2.17
2023-04-03T04:47:30.565Z,2.50
2023-04-03T04:49:58.403Z,2.00
2023-04-03T04:52:26.178Z,1.77
2023-04-03T04:54:53.958Z,2.23
2023-04-03T04:57:21.790Z,1.87
2023-04-03T04:59:51.158Z,2.40
2023-04-03T05:02:19.139Z,1.90
2023-04-03T05:04:47.030Z,2.07
2023-04-03T05:07:14.840Z,2.10
2023-04-03T05:09:43.258Z,2.07
2023-04-03T05:12:11.327Z,2.40
2023-04-03T05:14:39.215Z,2.60
2023-04-03T05:17:08.700Z,2.20
2023-04-03T05:19:36.479Z,2.40
2023-04-03T05:22:04.545Z,2.27
2023-04-03T05:24:32.400Z,2.53
2023-04-03T05:27:00.353Z,1.93
2023-04-03T05:29:28.190Z,2.53
2023-04-03T05:31:56.382Z,1.60
2023-04-03T05:34:25.675Z,2.53
2023-04-03T05:36:54.015Z,2.23
2023-04-03T05:39:22.016Z,2.50
2023-04-03T05:41:49.766Z,1.97
2023-04-03T05:44:17.503Z,2.10
2023-04-03T05:46:45.302Z,2.30
2023-04-03T05:49:13.112Z,2.60
2023-04-03T05:51:42.707Z,2.00
2023-04-03T05:54:15.559Z,2.80
2023-04-03T05:56:43.497Z,2.50
2023-04-03T05:59:11.387Z,2.10
2023-04-03T06:01:39.498Z,2.87
2023-04-03T06:04:10.004Z,2.77
2023-04-03T06:06:52.298Z,2.00
2023-04-03T06:09:21.811Z,2.10
2023-04-03T06:11:49.717Z,2.37
2023-04-03T06:14:17.596Z,2.33
2023-04-03T06:16:45.592Z,2.53
2023-04-03T06:19:14.261Z,2.03
2023-04-03T06:21:42.038Z,2.50
2023-04-03T06:24:14.291Z,2.97
2023-04-03T06:26:42.399Z,2.20
2023-04-03T06:29:10.462Z,2.73
2023-04-03T06:31:38.428Z,2.30
2023-04-03T06:34:09.536Z,2.47
2023-04-03T06:36:37.682Z,2.23
2023-04-03T06:39:05.764Z,2.40
2023-04-03T06:41:36.762Z,2.63
2023-04-03T06:44:05.183Z,2.30
2023-04-03T06:46:33.160Z,2.30
2023-04-03T06:49:01.112Z,3.00
2023-04-03T06:51:30.214Z,2.63
2023-04-03T06:53:59.723Z,2.57
2023-04-03T06:56:28.433Z,2.27
2023-04-03T06:58:58.550Z,2.20
2023-04-03T07:01:28.487Z,2.40
2023-04-03T07:03:57.370Z,2.73
2023-04-03T07:06:27.712Z,3.27
2023-04-03T07:08:56.215Z,2.53
2023-04-03T07:11:24.664Z,2.70
2023-04-03T07:13:52.601Z,2.93
2023-04-03T07:16:22.478Z,2.77
2023-04-03T07:18:50.351Z,2.30
2023-04-03T07:21:18.131Z,2.70
2023-04-03T07:23:45.970Z,3.33
2023-04-03T07:26:13.759Z,2.97
2023-04-03T07:28:42.366Z,2.97
2023-04-03T07:31:14.381Z,2.40
2023-04-03T07:33:44.338Z,2.23
2023-04-03T07:36:16.162Z,3.40
2023-04-03T07:38:43.938Z,2.90
2023-04-03T07:41:15.855Z,2.80
2023-04-03T07:43:44.101Z,3.70
2023-04-03T07:46:11.955Z,2.20
2023-04-03T07:48:39.857Z,3.20
2023-04-03T07:51:08.991Z,3.40
2023-04-03T07:53:36.846Z,3.77
2023-04-03T07:56:08.298Z,3.20
2023-04-03T07:58:36.160Z,2.47
2023-04-03T08:01:04.147Z,2.73
2023-04-03T08:03:33.870Z,3.50
2023-04-03T08:06:06.108Z,2.53
2023-04-03T08:08:36.489Z,2.90
2023-04-03T08:11:06.498Z,3.50
2023-04-03T08:13:35.751Z,2.90
2023-04-03T08:16:10.342Z,2.97
2023-04-03T08:18:38.127Z,3.70
2023-04-03T08:21:08.413Z,3.37
2023-04-03T08:23:37.692Z,3.77
2023-04-03T08:26:11.394Z,3.63
2023-04-03T08:28:39.857Z,3.20
2023-04-03T08:31:11.754Z,3.57
2023-04-03T08:33:40.575Z,3.13
2023-04-03T08:36:17.463Z,3.40
2023-04-03T08:38:46.770Z,3.27
2023-04-03T08:41:18.884Z,3.40
2023-04-03T08:43:59.750Z,3.10
2023-04-03T08:46:39.426Z,3.00
2023-04-03T08:49:18.216Z,3.10
2023-04-03T08:51:50.588Z,3.17
2023-04-03T08:54:28.996Z,3.60
2023-04-03T08:56:57.673Z,3.17
2023-04-03T08:59:31.215Z,3.23
2023-04-03T09:02:03.137Z,3.00
2023-04-03T09:04:34.433Z,3.70
2023-04-03T09:07:11.378Z,2.80
2023-04-03T09:09:42.859Z,3.10
2023-04-03T09:12:19.223Z,2.83
2023-04-03T09:14:56.961Z,2.97
2023-04-03T09:17:36.702Z,2.87
2023-04-03T09:20:20.639Z,3.07
2023-04-03T09:22:52.863Z,3.33
2023-04-03T09:25:24.161Z,2.30
2023-04-03T09:27:52.639Z,2.67
2023-04-03T09:30:23.377Z,2.90
2023-04-03T09:32:53.514Z,2.70
2023-04-03T09:35:32.873Z,3.07
2023-04-03T09:38:21.932Z,2.40
2023-04-03T09:40:53.627Z,2.37
2023-04-03T09:43:30.252Z,2.60
2023-04-03T09:46:19.429Z,2.50
2023-04-03T09:49:07.961Z,3.17
2023-04-03T09:51:36.677Z,2.77
2023-04-03T09:54:32.276Z,2.50
2023-04-03T09:57:06.873Z,2.77
2023-04-03T09:59:35.059Z,2.33
2023-04-03T10:02:05.049Z,2.50
2023-04-03T10:04:43.531Z,2.23
2023-04-03T10:07:31.062Z,2.50
2023-04-03T10:09:59.880Z,2.43
2023-04-03T10:12:29.470Z,2.43
2023-04-03T10:14:59.314Z,2.17
2023-04-03T10:17:38.149Z,2.07
2023-04-03T10:20:24.249Z,2.70
2023-04-03T10:23:04.122Z,2.20
2023-04-03T10:25:41.833Z,2.93
2023-04-03T10:28:18.869Z,2.50
2023-04-03T10:30:52.395Z,2.40
2023-04-03T10:33:35.511Z,2.40
2023-04-03T10:36:19.723Z,2.40
2023-04-03T10:38:58.758Z,1.80
2023-04-03T10:41:36.333Z,2.53
2023-04-03T10:44:17.747Z,1.90
2023-04-03T10:46:49.653Z,2.07
2023-04-03T10:49:35.706Z,2.70
2023-04-03T10:52:14.629Z,1.80
2023-04-03T10:54:51.523Z,1.57
2023-04-03T10:57:20.396Z,2.20
2023-04-03T10:59:52.897Z,2.03
2023-04-03T11:02:30.254Z,1.80
2023-04-03T11:05:03.499Z,1.63
2023-04-03T11:07:38.685Z,2.00
2023-04-03T11:10:16.004Z,1.60
2023-04-03T11:12:47.904Z,1.57
2023-04-03T11:15:19.552Z,1.43
2023-04-03T11:17:52.158Z,1.97
2023-04-03T11:20:28.241Z,1.87
2023-04-03T11:23:02.537Z,2.07
2023-04-03T11:25:33.524Z,1.80
2023-04-03T11:28:03.560Z,1.43
2023-04-03T11:30:41.553Z,1.80
2023-04-03T11:33:34.744Z,1.70
2023-04-03T11:36:18.975Z,1.63
2023-04-03T11:38:57.599Z,1.47
2023-04-03T11:41:29.515Z,1.27
2023-04-03T11:43:59.772Z,1.60
2023-04-03T11:46:57.282Z,1.10
2023-04-03T11:49:58.883Z,1.27
2023-04-03T11:53:01.858Z,1.30
2023-04-03T11:55:46.364Z,1.53
2023-04-03T11:58:16.615Z,1.37
2023-04-03T12:01:00.243Z,1.20
2023-04-03T12:03:55.201Z,1.63
2023-04-03T12:07:14.487Z,1.23
2023-04-03T12:10:03.427Z,1.67
2023-04-03T12:12:41.265Z,1.20
2023-04-03T12:15:26.190Z,1.20
2023-04-03T12:17:54.174Z,1.23
2023-04-03T12:21:01.188Z,1.60
2023-04-03T12:23:32.561Z,1.20
2023-04-03T12:26:23.915Z,1.30
2023-04-03T12:28:54.536Z,1.60
2023-04-03T12:31:27.303Z,1.27
2023-04-03T12:34:15.777Z,1.50
2023-04-03T12:36:54.514Z,1.40
2023-04-03T12:39:46.046Z,1.10
2023-04-03T12:42:26.753Z,1.53
2023-04-03T12:45:00.516Z,1.13
2023-04-03T12:47:33.781Z,1.60
2023-04-03T12:50:03.777Z,1.70
2023-04-03T12:52:38.992Z,0.90
2023-04-03T12:55:16.151Z,1.20
2023-04-03T12:57:44.077Z,1.40
2023-04-03T13:00:35.059Z,1.63
2023-04-03T13:03:04.739Z,1.40
2023-04-03T13:05:36.532Z,1.60
2023-04-03T13:08:11.790Z,1.10
2023-04-03T13:10:58.151Z,1.80
2023-04-03T13:13:27.224Z,1.40
2023-04-03T13:15:56.228Z,1.07
2023-04-03T13:18:30.580Z,1.60
2023-04-03T13:21:04.909Z,1.20
2023-04-03T13:23:35.956Z,1.40
2023-04-03T13:26:05.086Z,1.27
2023-04-03T13:28:34.778Z,1.73
2023-04-03T13:31:07.220Z,1.53
2023-04-03T13:33:38.806Z,1.53
2023-04-03T13:36:09.831Z,1.30
2023-04-03T13:38:40.289Z,1.93
2023-04-03T13:41:25.611Z,1.57
2023-04-03T13:44:00.457Z,1.43
2023-04-03T13:46:34.720Z,1.40
2023-04-03T13:49:20.232Z,1.20
2023-04-03T13:51:54.166Z,1.30
2023-04-03T13:54:36.517Z,1.60
2023-04-03T13:57:05.375Z,1.33
2023-04-03T13:59:36.164Z,1.20
2023-04-03T14:02:20.174Z,1.23
2023-04-03T14:04:54.064Z,1.20
2023-04-03T14:07:22.238Z,1.53
2023-04-03T14:09:54.177Z,1.33
2023-04-03T14:12:31.375Z,1.30
2023-04-03T14:15:00.510Z,1.30
2023-04-03T14:17:28.822Z,1.07
2023-04-03T14:19:58.350Z,1.37
2023-04-03T14:22:30.077Z,1.43
2023-04-03T14:25:00.356Z,1.30
2023-04-03T14:27:30.432Z,1.00
2023-04-03T14:29:59.963Z,1.13
2023-04-03T14:32:29.184Z,1.17
2023-04-03T14:34:58.961Z,1.30
2023-04-03T14:37:30.117Z,1.30
2023-04-03T14:40:01.438Z,1.20
2023-04-03T14:42:32.542Z,0.93
2023-04-03T14:45:01.424Z,1.30
2023-04-03T14:47:32.367Z,1.20
2023-04-03T14:50:01.725Z,1.37
2023-04-03T14:52:32.588Z,1.00
2023-04-03T14:55:03.162Z,1.23
2023-04-03T14:57:32.288Z,0.83
2023-04-03T15:00:01.521Z,1.03
2023-04-03T15:02:32.080Z,1.00
2023-04-03T15:05:01.178Z,1.00
2023-04-03T15:07:31.368Z,1.10
2023-04-03T15:09:59.226Z,1.67
2023-04-03T15:12:28.483Z,1.17
2023-04-03T15:15:01.858Z,0.97
2023-04-03T15:17:31.617Z,1.07
2023-04-03T15:20:00.809Z,1.20
2023-04-03T15:22:28.832Z,1.10
2023-04-03T15:24:56.718Z,0.90
2023-04-03T15:27:24.556Z,1.37
2023-04-03T15:29:53.719Z,1.10
2023-04-03T15:32:21.571Z,1.40
2023-04-03T15:34:49.454Z,0.93
2023-04-03T15:37:17.304Z,1.13
2023-04-03T15:39:45.196Z,1.40
2023-04-03T15:42:13.648Z,1.00
2023-04-03T15:44:41.499Z,1.07
2023-04-03T15:47:10.844Z,1.00
2023-04-03T15:49:38.884Z,1.10
2023-04-03T15:52:06.875Z,1.10
2023-04-03T15:54:36.377Z,0.90
2023-04-03T15:57:04.357Z,1.40
2023-04-03T15:59:33.000Z,1.20
2023-04-03T16:02:03.534Z,1.17
2023-04-03T16:04:32.962Z,0.87
2023-04-03T16:07:03.166Z,1.20
2023-04-03T16:09:31.149Z,1.40
2023-04-03T16:11:59.009Z,1.10
2023-04-03T16:14:26.803Z,1.17
2023-04-03T16:16:54.656Z,1.30
2023-04-03T16:19:23.516Z,1.20
2023-04-03T16:21:55.328Z,1.20
2023-04-03T16:24:23.192Z,1.20
2023-04-03T16:26:50.966Z,1.20
2023-04-03T16:29:18.777Z,1.50
2023-04-03T16:31:47.179Z,1.20
2023-04-03T16:34:15.498Z,1.27
2023-04-03T16:36:43.322Z,1.20
2023-04-03T16:39:12.568Z,1.10
2023-04-03T16:41:40.830Z,1.10
2023-04-03T16:44:08.756Z,0.90
2023-04-03T16:46:36.608Z,0.90
2023-04-03T16:49:04.704Z,1.37
2023-04-03T16:51:32.661Z,1.10
2023-04-03T16:54:00.589Z,1.00
2023-04-03T16:56:29.807Z,1.07
2023-04-03T16:58:57.714Z,1.30
2023-04-03T17:01:25.772Z,1.13
2023-04-03T17:03:53.717Z,1.00
2023-04-03T17:06:24.291Z,1.07
2023-04-03T17:08:53.806Z,0.93
2023-04-03T17:11:22.159Z,1.40
2023-04-03T17:13:51.323Z,1.13
2023-04-03T17:16:19.563Z,1.33
2023-04-03T17:18:48.666Z,1.20
2023-04-03T17:21:18.653Z,1.30
2023-04-03T17:23:50.017Z,1.00
2023-04-03T17:26:17.911Z,1.00
2023-04-03T17:28:46.845Z,1.50
2023-04-03T17:31:16.058Z,1.30
2023-04-03T17:33:43.919Z,1.20
2023-04-03T17:36:12.179Z,1.33
2023-04-03T17:38:41.677Z,1.53
2023-04-03T17:41:10.425Z,1.30
2023-04-03T17:43:38.800Z,1.20
2023-04-03T17:46:09.618Z,1.40
2023-04-03T17:48:40.891Z,2.00
2023-04-03T17:51:10.262Z,1.63
2023-04-03T17:53:38.243Z,1.40
2023-04-03T17:56:09.627Z,1.37
2023-04-03T17:58:37.658Z,1.30
2023-04-03T18:01:13.810Z,1.63
2023-04-03T18:03:43.605Z,1.37
2023-04-03T18:06:14.593Z,1.67
2023-04-03T18:08:45.898Z,1.50
2023-04-03T18:11:15.227Z,1.20
2023-04-03T18:13:43.546Z,1.10
2023-04-03T18:16:13.414Z,1.33
2023-04-03T18:18:43.454Z,1.63
2023-04-03T18:21:14.475Z,1.40
2023-04-03T18:23:45.750Z,1.30
2023-04-03T18:26:17.961Z,1.30
2023-04-03T18:28:51.891Z,1.17
2023-04-03T18:31:20.933Z,1.17
2023-04-03T18:33:53.779Z,1.53
2023-04-03T18:36:21.789Z,1.40
2023-04-03T18:38:49.595Z,1.30
2023-04-03T18:41:17.533Z,1.10
2023-04-03T18:43:45.300Z,1.43
2023-04-03T18:46:13.158Z,1.07
2023-04-03T18:48:41.723Z,1.30
2023-04-03T18:51:13.362Z,0.90
2023-04-03T18:56:13.891Z,1.10
2023-04-03T18:58:41.815Z,1.30
2023-04-03T19:01:10.485Z,1.50
2023-04-03T19:03:38.910Z,1.27
2023-04-03T19:06:07.736Z,1.10
2023-04-03T19:08:37.020Z,1.30
2023-04-03T19:11:05.191Z,1.77
2023-04-03T19:13:33.611Z,1.30
2023-04-03T19:16:01.722Z,1.20
2023-04-03T19:18:30.681Z,1.70
2023-04-03T19:20:59.113Z,1.30
2023-04-03T19:23:27.847Z,1.20
2023-04-03T19:26:00.859Z,1.23
2023-04-03T19:28:28.765Z,1.13
2023-04-03T19:30:57.794Z,1.77
2023-04-03T19:33:26.688Z,1.70
2023-04-03T19:35:54.635Z,1.73
2023-04-03T19:38:22.506Z,1.50
2023-04-03T19:40:50.286Z,1.40
2023-04-03T19:43:19.494Z,2.00
2023-04-03T19:45:47.435Z,1.43
2023-04-03T19:48:15.424Z,1.30
2023-04-03T19:50:43.326Z,1.30
2023-04-03T19:53:11.679Z,1.40
2023-04-03T19:55:40.301Z,1.47
2023-04-03T19:58:08.333Z,1.40
2023-04-03T20:00:37.502Z,1.87
2023-04-03T20:03:06.182Z,1.50
2023-04-03T20:05:34.257Z,1.33
2023-04-03T20:08:02.214Z,1.37
2023-04-03T20:10:30.448Z,1.20
2023-04-03T20:12:58.283Z,1.23
2023-04-03T20:15:26.412Z,1.50
2023-04-03T20:17:55.808Z,1.37
2023-04-03T20:20:23.732Z,1.47
2023-04-03T20:22:53.708Z,1.80
2023-04-03T20:25:42.370Z,1.73
2023-04-03T20:28:10.809Z,1.33
2023-04-03T20:30:39.713Z,1.43
2023-04-03T20:33:09.489Z,1.40
2023-04-03T20:35:37.346Z,1.50
2023-04-03T20:38:06.479Z,1.23
2023-04-03T20:40:35.277Z,1.50
2023-04-03T20:43:03.095Z,1.63
2023-04-03T20:45:31.954Z,1.30
2023-04-03T20:48:00.383Z,1.97
2023-04-03T20:50:30.107Z,1.50
2023-04-03T20:52:58.828Z,1.60
2023-04-03T20:55:27.053Z,1.33
2023-04-03T20:58:00.648Z,1.40
2023-04-03T21:00:28.842Z,1.20
2023-04-03T21:02:57.789Z,1.30
2023-04-03T21:05:30.085Z,1.40
2023-04-03T21:08:35.778Z,1.50
2023-04-03T21:11:41.328Z,1.70
2023-04-03T21:14:48.325Z,1.80
2023-04-03T21:17:16.274Z,1.60
2023-04-03T21:19:46.849Z,1.50
2023-04-03T21:22:16.110Z,1.13
2023-04-03T21:24:45.099Z,1.50
2023-04-03T21:27:12.979Z,1.30
2023-04-03T21:29:41.530Z,1.30
2023-04-03T21:32:09.449Z,1.43
2023-04-03T21:34:37.319Z,1.33
2023-04-03T21:37:07.820Z,1.53
2023-04-03T21:39:36.135Z,1.63
2023-04-03T21:42:04.108Z,1.40
2023-04-03T21:44:32.164Z,1.40
2023-04-03T21:46:59.956Z,1.50
2023-04-03T21:49:27.722Z,1.80
2023-04-03T21:51:55.527Z,1.40
2023-04-03T21:54:25.703Z,1.60
2023-04-03T21:56:53.535Z,2.30
2023-04-03T21:59:21.507Z,1.43
2023-04-03T22:01:49.613Z,1.30
2023-04-03T22:04:17.506Z,1.50
2023-04-03T22:06:45.654Z,1.30
2023-04-03T22:09:13.471Z,1.73
2023-04-03T22:11:45.660Z,1.30
2023-04-03T22:14:13.462Z,1.07
2023-04-03T22:16:41.311Z,1.20
2023-04-03T22:19:09.125Z,1.40
2023-04-03T22:21:37.038Z,1.80
2023-04-03T22:24:05.156Z,1.93
2023-04-03T22:26:32.983Z,1.60
2023-04-03T22:29:03.981Z,1.80
2023-04-03T22:31:31.990Z,1.30
2023-04-03T22:34:04.005Z,1.70
2023-04-03T22:36:32.094Z,1.80
2023-04-03T22:39:00.224Z,1.60
2023-04-03T22:41:28.105Z,2.10
2023-04-03T22:43:57.799Z,1.53
2023-04-03T22:46:28.131Z,1.20
2023-04-03T22:48:56.050Z,1.73
2023-04-03T22:51:23.870Z,1.40
2023-04-03T22:53:51.747Z,1.47
2023-04-03T22:56:19.763Z,1.60
2023-04-03T23:01:24.098Z,1.50
2023-04-03T23:03:53.459Z,2.00
2023-04-03T23:06:21.276Z,1.53
2023-04-03T23:08:49.051Z,1.23
2023-04-03T23:11:16.869Z,2.17
2023-04-03T23:13:44.651Z,1.60
2023-04-03T23:16:12.935Z,1.63
2023-04-03T23:18:41.646Z,1.17
2023-04-03T23:21:10.817Z,1.70
2023-04-03T23:23:38.575Z,1.50
2023-04-03T23:26:06.515Z,1.97
2023-04-03T23:28:34.318Z,1.40
2023-04-03T23:31:03.867Z,1.63
2023-04-03T23:33:32.718Z,1.70
2023-04-03T23:36:07.202Z,1.90
2023-04-03T23:38:36.753Z,1.80
2023-04-03T23:41:04.618Z,1.53
2023-04-03T23:43:32.870Z,1.27
2023-04-03T23:46:00.761Z,1.67
2023-04-03T23:48:28.617Z,1.90
2023-04-03T23:50:56.709Z,1.80
2023-04-03T23:53:24.591Z,1.87
2023-04-03T23:55:53.774Z,1.83
2023-04-03T23:58:21.548Z,1.47
